createdAt,value
2019-03-25T00:01:50.724Z,8.37
2019-03-25T00:05:14.931Z,8.06
2019-03-25T00:08:38.827Z,8.28
2019-03-25T00:12:02.880Z,8.22
2019-03-25T00:15:26.792Z,8.38
2019-03-25T00:18:50.853Z,8.19
2019-03-25T00:22:14.816Z,8.36
2019-03-25T00:25:38.977Z,8.29
2019-03-25T00:29:02.884Z,8.69
2019-03-25T00:32:26.798Z,8.43
2019-03-25T00:35:50.752Z,8.42
2019-03-25T00:39:15.005Z,8.36
2019-03-25T00:42:39.046Z,8.01
2019-03-25T00:46:02.953Z,8.31
2019-03-25T00:49:26.879Z,8.14
2019-03-25T00:52:50.863Z,8.30
2019-03-25T00:56:14.766Z,8.19
2019-03-25T00:59:39.167Z,8.19
2019-03-25T01:03:03.215Z,8.03
2019-03-25T01:06:27.115Z,8.02
2019-03-25T01:09:51.166Z,7.95
2019-03-25T01:13:15.154Z,7.61
2019-03-25T01:16:39.172Z,8.05
2019-03-25T01:20:03.198Z,8.39
2019-03-25T01:23:27.503Z,8.09
2019-03-25T01:26:51.401Z,8.28
2019-03-25T01:30:15.373Z,8.47
2019-03-25T01:33:39.292Z,8.40
2019-03-25T01:37:03.152Z,8.53
2019-03-25T01:40:27.076Z,8.82
2019-03-25T01:43:51.280Z,8.91
2019-03-25T01:47:15.198Z,8.52
2019-03-25T01:50:39.198Z,8.31
2019-03-25T01:54:03.094Z,8.28
2019-03-25T01:57:27.013Z,8.61
2019-03-25T02:00:51.019Z,8.56
2019-03-25T02:04:14.890Z,8.80
2019-03-25T02:07:38.869Z,8.79
2019-03-25T02:11:02.794Z,9.08
2019-03-25T02:14:26.746Z,9.02
2019-03-25T02:17:50.680Z,9.12
2019-03-25T02:21:14.583Z,9.14
2019-03-25T02:24:38.594Z,9.13
2019-03-25T02:28:02.473Z,8.97
2019-03-25T02:31:26.387Z,9.30
2019-03-25T02:34:50.572Z,9.28
2019-03-25T02:38:14.522Z,9.17
2019-03-25T02:41:38.522Z,9.07
2019-03-25T02:45:02.467Z,9.25
2019-03-25T02:48:26.470Z,9.33
2019-03-25T02:51:50.491Z,9.09
2019-03-25T02:55:14.403Z,9.34
2019-03-25T02:59:48.124Z,9.61
2019-03-25T03:08:13.997Z,9.51
2019-03-25T03:11:38.241Z,8.95
2019-03-25T03:15:02.183Z,8.97
2019-03-25T03:18:26.105Z,9.04
2019-03-25T03:21:50.040Z,9.26
2019-03-25T03:25:13.949Z,8.93
2019-03-25T03:28:37.852Z,9.11
2019-03-25T03:32:01.760Z,9.30
2019-03-25T03:35:25.674Z,9.31
2019-03-25T03:38:49.576Z,9.47
2019-03-25T03:42:13.477Z,9.01
2019-03-25T03:45:37.436Z,9.50
2019-03-25T03:49:01.326Z,9.35
2019-03-25T03:52:25.310Z,9.49
2019-03-25T03:55:50.612Z,9.32
2019-03-25T03:59:14.504Z,9.62
2019-03-25T04:02:38.394Z,9.48
2019-03-25T04:06:02.303Z,9.38
2019-03-25T04:09:26.237Z,9.29
2019-03-25T04:12:50.198Z,9.57
2019-03-25T04:16:14.114Z,9.84
2019-03-25T04:19:38.613Z,9.53
2019-03-25T04:23:02.571Z,9.71
2019-03-25T04:26:28.825Z,9.76
2019-03-25T04:29:52.288Z,9.66
2019-03-25T04:33:16.249Z,9.73
2019-03-25T04:36:40.558Z,9.68
2019-03-25T04:40:04.831Z,9.68
2019-03-25T04:43:28.738Z,9.55
2019-03-25T04:46:52.627Z,9.58
2019-03-25T04:50:16.552Z,9.75
2019-03-25T04:53:40.775Z,9.43
2019-03-25T04:57:04.661Z,9.50
2019-03-25T05:00:36.577Z,9.71
2019-03-25T05:04:00.476Z,9.39
2019-03-25T05:07:24.354Z,9.57
2019-03-25T05:10:48.295Z,9.85
2019-03-25T05:14:12.307Z,9.51
2019-03-25T05:17:36.263Z,9.49
2019-03-25T05:21:00.207Z,9.19
2019-03-25T05:24:24.080Z,8.84
2019-03-25T05:27:47.965Z,9.12
2019-03-25T05:31:11.908Z,9.14
2019-03-25T05:34:35.761Z,9.30
2019-03-25T05:38:00.661Z,9.40
2019-03-25T05:41:24.587Z,9.33
2019-03-25T05:44:48.518Z,8.92
2019-03-25T05:48:12.391Z,9.01
2019-03-25T05:51:36.716Z,8.67
2019-03-25T05:55:01.144Z,8.57
2019-03-25T05:58:25.164Z,8.53
2019-03-25T06:01:49.265Z,8.52
2019-03-25T06:05:13.319Z,8.17
2019-03-25T06:08:37.690Z,8.29
2019-03-25T06:12:01.590Z,8.64
2019-03-25T06:15:25.812Z,8.84
2019-03-25T06:18:49.676Z,8.88
2019-03-25T06:22:13.605Z,8.70
2019-03-25T06:25:37.617Z,8.62
2019-03-25T06:29:01.586Z,8.76
2019-03-25T06:32:25.943Z,8.78
2019-03-25T06:35:50.129Z,8.67
2019-03-25T06:39:14.347Z,8.52
2019-03-25T06:42:38.268Z,8.49
2019-03-25T06:46:02.195Z,8.40
2019-03-25T06:49:26.078Z,8.87
2019-03-25T06:52:50.157Z,8.85
2019-03-25T06:56:14.709Z,9.16
2019-03-25T06:59:38.741Z,9.34
2019-03-25T07:03:02.652Z,9.37
2019-03-25T07:06:26.677Z,9.71
2019-03-25T07:09:50.572Z,10.02
2019-03-25T07:13:15.063Z,9.82
2019-03-25T07:16:39.007Z,9.39
2019-03-25T07:20:03.381Z,9.20
2019-03-25T07:23:27.407Z,9.27
2019-03-25T07:26:51.404Z,9.30
2019-03-25T07:30:15.442Z,9.51
2019-03-25T07:33:39.372Z,9.65
2019-03-25T07:37:03.507Z,9.65
2019-03-25T07:40:27.544Z,9.48
2019-03-25T07:43:51.782Z,9.77
2019-03-25T07:47:15.698Z,9.75
2019-03-25T07:50:39.703Z,9.65
2019-03-25T07:54:03.695Z,9.68
2019-03-25T07:57:27.652Z,9.60
2019-03-25T08:00:51.691Z,9.69
2019-03-25T08:04:15.737Z,9.61
2019-03-25T08:07:39.651Z,10.43
2019-03-25T08:11:03.670Z,11.05
2019-03-25T08:14:27.550Z,10.14
2019-03-25T08:17:51.775Z,10.05
2019-03-25T08:21:15.674Z,10.06
2019-03-25T08:24:39.623Z,10.49
2019-03-25T08:28:03.550Z,10.60
2019-03-25T08:31:27.893Z,9.77
2019-03-25T08:34:52.292Z,9.65
2019-03-25T08:38:16.239Z,9.76
2019-03-25T08:41:40.503Z,10.22
2019-03-25T08:45:05.452Z,9.38
2019-03-25T08:48:30.693Z,9.20
2019-03-25T08:51:54.770Z,9.27
2019-03-25T08:55:18.717Z,9.99
2019-03-25T08:58:42.883Z,9.95
2019-03-25T09:02:06.852Z,10.25
2019-03-25T09:05:30.815Z,10.98
2019-03-25T09:08:54.941Z,10.46
2019-03-25T09:12:18.891Z,10.95
2019-03-25T09:15:42.819Z,10.64
2019-03-25T09:19:06.785Z,11.08
2019-03-25T09:22:30.748Z,11.11
2019-03-25T09:25:54.712Z,11.28
2019-03-25T09:29:18.618Z,10.90
2019-03-25T09:32:42.986Z,11.10
2019-03-25T09:36:07.070Z,11.12
2019-03-25T09:39:30.979Z,10.94
2019-03-25T09:42:54.903Z,11.55
2019-03-25T09:46:19.320Z,11.75
2019-03-25T09:49:43.249Z,12.38
2019-03-25T09:53:07.259Z,12.55
2019-03-25T09:56:31.552Z,13.15
2019-03-25T09:59:55.478Z,13.17
2019-03-25T10:03:19.424Z,14.17
2019-03-25T10:06:44.509Z,15.04
2019-03-25T10:10:09.037Z,13.27
2019-03-25T10:13:33.334Z,10.66
2019-03-25T10:16:57.317Z,10.11
2019-03-25T10:20:21.253Z,11.77
2019-03-25T10:23:45.212Z,13.39
2019-03-25T10:27:09.247Z,14.85
2019-03-25T10:30:33.184Z,16.50
2019-03-25T10:33:57.266Z,16.47
2019-03-25T10:37:21.298Z,17.73
2019-03-25T10:40:45.256Z,17.46
2019-03-25T10:44:09.194Z,17.49
2019-03-25T10:47:33.152Z,17.60
2019-03-25T10:50:58.114Z,17.20
2019-03-25T10:54:22.644Z,17.06
2019-03-25T10:57:46.631Z,18.07
2019-03-25T11:01:10.780Z,17.70
2019-03-25T11:04:34.839Z,18.03
2019-03-25T11:07:58.869Z,16.82
2019-03-25T11:11:23.060Z,17.57
2019-03-25T11:14:47.044Z,16.34
2019-03-25T11:18:11.238Z,13.38
2019-03-25T11:21:35.243Z,11.67
2019-03-25T11:24:59.146Z,11.11
2019-03-25T11:28:24.070Z,12.15
2019-03-25T11:31:47.979Z,14.60
2019-03-25T11:35:13.714Z,16.10
2019-03-25T11:38:37.559Z,16.65
2019-03-25T11:42:01.588Z,17.98
2019-03-25T11:45:25.733Z,18.18
2019-03-25T11:48:49.714Z,18.37
2019-03-25T11:52:13.639Z,20.04
2019-03-25T11:55:37.550Z,19.00
2019-03-25T11:59:02.954Z,17.75
2019-03-25T12:02:27.209Z,17.54
2019-03-25T12:05:51.131Z,15.72
2019-03-25T12:09:15.144Z,16.49
2019-03-25T12:12:39.150Z,16.75
2019-03-25T12:16:03.208Z,16.61
2019-03-25T12:19:27.119Z,15.41
2019-03-25T12:22:51.077Z,15.52
2019-03-25T12:26:15.266Z,15.30
2019-03-25T12:29:39.203Z,16.01
2019-03-25T12:33:04.339Z,16.71
2019-03-25T12:36:28.495Z,17.62
2019-03-25T12:39:52.693Z,18.83
2019-03-25T12:43:16.936Z,20.13
2019-03-25T12:46:41.000Z,19.00
2019-03-25T12:50:05.931Z,18.61
2019-03-25T12:53:29.884Z,18.50
2019-03-25T12:56:53.958Z,19.81
2019-03-25T13:00:34.779Z,20.81
2019-03-25T13:03:58.858Z,20.96
2019-03-25T13:07:22.813Z,19.83
2019-03-25T13:10:47.319Z,17.78
2019-03-25T13:14:11.382Z,17.36
2019-03-25T13:17:35.429Z,17.01
2019-03-25T13:20:59.422Z,16.75
2019-03-25T13:24:23.310Z,16.68
2019-03-25T13:27:47.480Z,15.93
2019-03-25T13:31:11.474Z,15.11
2019-03-25T13:34:35.373Z,14.25
2019-03-25T13:38:00.377Z,12.97
2019-03-25T13:41:24.681Z,11.96
2019-03-25T13:44:48.579Z,11.21
2019-03-25T13:48:12.481Z,11.41
2019-03-25T13:51:36.404Z,11.75
2019-03-25T13:55:00.447Z,13.03
2019-03-25T13:58:24.511Z,13.13
2019-03-25T14:01:48.571Z,12.33
2019-03-25T14:05:12.675Z,12.21
2019-03-25T14:08:36.615Z,12.22
2019-03-25T14:12:00.712Z,11.81
2019-03-25T14:15:24.670Z,10.89
2019-03-25T14:18:48.538Z,10.67
2019-03-25T14:22:13.936Z,11.62
2019-03-25T14:25:38.019Z,11.80
2019-03-25T14:29:02.084Z,12.06
2019-03-25T14:32:26.020Z,12.63
2019-03-25T14:35:50.099Z,15.49
2019-03-25T14:39:14.173Z,17.25
2019-03-25T14:42:41.049Z,17.65
2019-03-25T14:46:05.313Z,18.59
2019-03-25T14:49:31.214Z,18.33
2019-03-25T14:52:55.889Z,16.15
2019-03-25T14:56:20.482Z,14.93
2019-03-25T14:59:47.464Z,13.87
2019-03-25T15:03:12.174Z,14.82
2019-03-25T15:06:36.415Z,17.20
2019-03-25T15:10:00.366Z,17.90
2019-03-25T15:13:24.366Z,19.65
2019-03-25T15:16:48.450Z,22.00
2019-03-25T15:20:15.585Z,20.94
2019-03-25T15:23:39.650Z,20.89
2019-03-25T15:27:03.773Z,21.23
2019-03-25T15:30:35.459Z,21.38
2019-03-25T15:33:54.068Z,21.89
2019-03-25T15:37:17.970Z,20.84
2019-03-25T15:40:42.040Z,20.22
2019-03-25T15:44:06.444Z,18.08
2019-03-25T15:47:30.422Z,17.02
2019-03-25T15:50:54.412Z,16.45
2019-03-25T15:54:18.737Z,15.64
2019-03-25T15:57:42.742Z,15.03
2019-03-25T16:01:06.659Z,14.97
2019-03-25T16:04:30.643Z,15.56
2019-03-25T16:07:55.060Z,16.61
2019-03-25T16:11:19.054Z,16.34
2019-03-25T16:14:43.065Z,15.72
2019-03-25T16:18:07.759Z,15.84
2019-03-25T16:21:31.810Z,14.98
2019-03-25T16:24:56.159Z,14.78
2019-03-25T16:28:20.054Z,14.58
2019-03-25T16:31:44.314Z,14.27
2019-03-25T16:35:08.527Z,13.92
2019-03-25T16:38:33.603Z,13.81
2019-03-25T16:41:57.611Z,13.86
2019-03-25T16:45:23.759Z,14.33
2019-03-25T16:48:48.600Z,14.11
2019-03-25T16:52:12.612Z,13.82
2019-03-25T16:55:36.489Z,13.04
2019-03-25T16:59:00.376Z,13.28
2019-03-25T17:02:24.702Z,13.40
2019-03-25T17:05:49.000Z,13.39
2019-03-25T17:09:13.267Z,13.38
2019-03-25T17:12:37.795Z,13.25
2019-03-25T17:16:01.800Z,13.12
2019-03-25T17:19:25.713Z,13.10
2019-03-25T17:22:49.637Z,13.03
2019-03-25T17:26:13.663Z,12.64
2019-03-25T17:29:38.894Z,12.77
2019-03-25T17:33:02.721Z,12.88
2019-03-25T17:36:27.251Z,12.54
2019-03-25T17:39:51.296Z,12.57
2019-03-25T17:43:15.251Z,12.69
2019-03-25T17:46:39.726Z,12.72
2019-03-25T17:50:04.828Z,12.73
2019-03-25T17:53:29.261Z,12.40
2019-03-25T17:56:53.368Z,12.31
2019-03-25T18:01:15.086Z,12.25
2019-03-25T18:04:39.147Z,12.26
2019-03-25T18:08:03.286Z,12.20
2019-03-25T18:11:27.788Z,12.30
2019-03-25T18:14:51.800Z,12.08
2019-03-25T18:18:15.705Z,12.08
2019-03-25T18:21:39.601Z,12.46
2019-03-25T18:25:03.697Z,12.37
2019-03-25T18:28:27.668Z,12.22
2019-03-25T18:31:51.623Z,12.23
2019-03-25T18:35:23.332Z,12.42
2019-03-25T18:38:47.303Z,11.89
2019-03-25T18:42:11.575Z,11.64
2019-03-25T18:45:35.538Z,11.77
2019-03-25T18:48:59.421Z,12.11
2019-03-25T18:52:23.395Z,11.95
2019-03-25T18:55:47.558Z,11.99
2019-03-25T18:59:12.182Z,12.07
2019-03-25T19:02:36.466Z,12.04
2019-03-25T19:06:00.397Z,11.96
2019-03-25T19:09:24.436Z,12.10
2019-03-25T19:12:48.584Z,12.04
2019-03-25T19:16:12.503Z,12.05
2019-03-25T19:19:36.780Z,11.78
2019-03-25T19:23:00.932Z,11.75
2019-03-25T19:26:24.904Z,11.87
2019-03-25T19:29:49.879Z,11.53
2019-03-25T19:33:14.595Z,11.90
2019-03-25T19:36:38.804Z,11.81
2019-03-25T19:40:03.012Z,11.69
2019-03-25T19:43:27.045Z,11.56
2019-03-25T19:46:51.216Z,11.42
2019-03-25T19:50:16.988Z,11.33
2019-03-25T19:53:41.126Z,11.43
2019-03-25T19:57:05.160Z,11.33
2019-03-25T20:01:19.153Z,11.12
2019-03-25T20:04:43.099Z,11.08
2019-03-25T20:08:08.311Z,10.90
2019-03-25T20:11:33.439Z,10.84
2019-03-25T20:14:57.496Z,10.80
2019-03-25T20:18:21.954Z,10.91
2019-03-25T20:21:47.356Z,10.71
2019-03-25T20:25:11.825Z,10.84
2019-03-25T20:28:38.617Z,10.82
2019-03-25T20:32:03.919Z,10.72
2019-03-25T20:35:31.186Z,10.89
2019-03-25T20:38:56.174Z,10.91
2019-03-25T20:42:22.635Z,10.83
2019-03-25T20:45:46.655Z,10.91
2019-03-25T20:49:10.958Z,11.01
2019-03-25T20:52:37.584Z,11.02
2019-03-25T20:56:05.124Z,11.01
2019-03-25T20:59:29.326Z,10.93
2019-03-25T21:02:53.434Z,10.99
2019-03-25T21:06:18.276Z,10.71
2019-03-25T21:09:44.405Z,10.78
2019-03-25T21:13:08.533Z,10.84
2019-03-25T21:16:32.672Z,10.72
2019-03-25T21:19:57.616Z,10.74
2019-03-25T21:23:21.559Z,10.96
2019-03-25T21:26:45.708Z,10.81
2019-03-25T21:30:10.272Z,10.66
2019-03-25T21:33:34.442Z,10.58
2019-03-25T21:36:58.574Z,10.53
2019-03-25T21:40:22.861Z,10.71
2019-03-25T21:43:46.976Z,10.69
2019-03-25T21:47:11.042Z,10.64
2019-03-25T21:50:35.118Z,10.70
2019-03-25T21:53:59.148Z,10.70
2019-03-25T21:57:23.177Z,10.64
2019-03-25T22:00:48.212Z,10.62
2019-03-25T22:04:12.639Z,10.66
2019-03-25T22:07:36.672Z,10.83
2019-03-25T22:11:01.018Z,10.74
2019-03-25T22:14:25.351Z,10.78
2019-03-25T22:17:49.301Z,10.71
2019-03-25T22:21:13.358Z,10.62
2019-03-25T22:24:37.301Z,10.46
2019-03-25T22:28:01.220Z,10.70
2019-03-25T22:31:26.063Z,10.58
2019-03-25T22:34:50.136Z,10.49
2019-03-25T22:38:14.131Z,10.61
2019-03-25T22:41:38.057Z,10.47
2019-03-25T22:45:02.054Z,10.45
2019-03-25T22:48:27.091Z,10.47
2019-03-25T22:51:51.067Z,10.64
2019-03-25T22:55:15.126Z,10.66
2019-03-25T22:58:39.375Z,10.70
2019-03-25T23:02:03.666Z,10.67
2019-03-25T23:05:27.796Z,10.50
2019-03-25T23:08:51.755Z,10.52
2019-03-25T23:12:15.863Z,10.34
2019-03-25T23:15:39.829Z,10.44
2019-03-25T23:19:03.770Z,10.54
2019-03-25T23:22:27.790Z,10.51
2019-03-25T23:25:52.801Z,10.62
2019-03-25T23:29:17.955Z,10.52
2019-03-25T23:32:42.087Z,10.45
2019-03-25T23:36:06.172Z,10.58
2019-03-25T23:39:30.159Z,10.51
2019-03-25T23:42:54.267Z,10.45
2019-03-25T23:46:18.382Z,10.46
2019-03-25T23:49:42.546Z,10.42
2019-03-25T23:53:06.521Z,10.26
2019-03-25T23:56:30.566Z,10.39
2019-03-25T23:59:54.663Z,10.36
